createdAt,value
2019-01-21T00:02:26.837Z,1.90
2019-01-21T00:04:54.376Z,1.91
2019-01-21T00:07:22.026Z,2.03
2019-01-21T00:09:49.716Z,1.97
2019-01-21T00:12:17.325Z,1.92
2019-01-21T00:14:45.309Z,1.89
2019-01-21T00:17:13.023Z,2.13
2019-01-21T00:19:40.729Z,2.14
2019-01-21T00:22:08.549Z,1.99
2019-01-21T00:24:36.375Z,1.95
2019-01-21T00:27:04.291Z,2.24
2019-01-21T00:29:31.962Z,2.06
2019-01-21T00:31:59.705Z,1.91
2019-01-21T00:34:27.446Z,1.84
2019-01-21T00:36:55.366Z,1.80
2019-01-21T00:39:23.071Z,1.77
2019-01-21T00:41:50.696Z,1.78
2019-01-21T00:44:18.611Z,1.76
2019-01-21T00:46:46.309Z,1.75
2019-01-21T00:49:14.042Z,1.74
2019-01-21T00:51:41.862Z,1.76
2019-01-21T00:54:09.696Z,1.74
2019-01-21T00:56:37.425Z,1.72
2019-01-21T00:59:05.145Z,1.73
2019-01-21T01:01:32.812Z,1.75
2019-01-21T01:04:00.603Z,1.80
2019-01-21T01:06:28.237Z,1.73
2019-01-21T01:08:55.949Z,1.78
2019-01-21T01:11:23.568Z,1.96
2019-01-21T01:13:51.373Z,1.97
2019-01-21T01:16:19.098Z,1.89
2019-01-21T01:18:46.718Z,1.67
2019-01-21T01:21:14.474Z,1.74
2019-01-21T01:23:42.209Z,1.71
2019-01-21T01:26:09.812Z,1.68
2019-01-21T01:28:37.479Z,1.71
2019-01-21T01:31:05.447Z,1.72
2019-01-21T01:33:33.141Z,1.70
2019-01-21T01:36:00.784Z,1.69
2019-01-21T01:38:28.552Z,1.72
2019-01-21T01:40:56.230Z,1.71
2019-01-21T01:43:23.922Z,1.75
2019-01-21T01:45:51.551Z,1.73
2019-01-21T01:48:19.410Z,1.84
2019-01-21T01:50:46.965Z,1.86
2019-01-21T01:53:15.054Z,1.73
2019-01-21T01:55:42.757Z,1.70
2019-01-21T01:58:10.407Z,1.75
2019-01-21T02:00:38.050Z,1.70
2019-01-21T02:03:05.648Z,1.69
2019-01-21T02:05:33.287Z,1.70
2019-01-21T02:08:01.093Z,1.67
2019-01-21T02:10:29.209Z,1.65
2019-01-21T02:12:57.033Z,1.80
2019-01-21T02:15:24.952Z,1.78
2019-01-21T02:17:52.965Z,1.76
2019-01-21T02:20:20.812Z,1.79
2019-01-21T02:22:51.009Z,1.85
2019-01-21T02:25:18.707Z,1.84
2019-01-21T02:28:36.197Z,1.81
2019-01-21T02:31:46.763Z,1.86
2019-01-21T02:34:33.052Z,1.88
2019-01-21T02:37:42.357Z,1.90
2019-01-21T02:40:55.219Z,1.97
2019-01-21T02:43:52.745Z,1.97
2019-01-21T02:47:09.632Z,1.97
2019-01-21T02:50:20.663Z,1.92
2019-01-21T02:53:45.175Z,1.92
2019-01-21T02:56:54.664Z,1.88
2019-01-21T03:00:10.374Z,1.90
2019-01-21T03:02:50.821Z,1.92
2019-01-21T03:06:03.195Z,1.93
2019-01-21T03:09:20.802Z,1.91
2019-01-21T03:12:39.355Z,1.84
2019-01-21T03:15:50.551Z,1.85
2019-01-21T03:18:45.025Z,1.85
2019-01-21T03:22:02.923Z,1.85
2019-01-21T03:25:04.567Z,1.87
2019-01-21T03:28:26.276Z,1.92
2019-01-21T03:31:32.507Z,1.90
2019-01-21T03:34:34.238Z,1.85
2019-01-21T03:37:42.238Z,1.85
2019-01-21T03:40:35.194Z,1.83
2019-01-21T03:43:40.322Z,1.83
2019-01-21T03:46:28.408Z,1.84
2019-01-21T03:49:06.186Z,1.83
2019-01-21T03:52:15.543Z,1.82
2019-01-21T03:54:50.822Z,1.82
2019-01-21T03:58:15.154Z,1.83
2019-01-21T04:00:56.328Z,1.81
2019-01-21T04:04:05.795Z,1.89
2019-01-21T04:06:50.549Z,1.88
2019-01-21T04:10:17.790Z,1.86
2019-01-21T04:13:09.668Z,1.83
2019-01-21T04:16:08.655Z,1.82
2019-01-21T04:19:04.442Z,1.83
2019-01-21T04:22:08.757Z,1.81
2019-01-21T04:25:10.568Z,1.81
2019-01-21T04:28:01.056Z,1.80
2019-01-21T04:30:54.429Z,1.80
2019-01-21T04:34:19.955Z,1.84
2019-01-21T04:37:26.453Z,2.03
2019-01-21T04:40:03.984Z,1.87
2019-01-21T04:43:13.852Z,1.94
2019-01-21T04:46:26.860Z,2.00
2019-01-21T04:49:19.712Z,1.83
2019-01-21T04:52:31.841Z,1.82
2019-01-21T04:55:31.300Z,1.70
2019-01-21T04:58:47.192Z,1.56
2019-01-21T05:01:36.902Z,1.59
2019-01-21T05:04:31.178Z,1.56
2019-01-21T05:07:33.904Z,1.59
2019-01-21T05:10:36.435Z,1.61
2019-01-21T05:13:27.417Z,1.64
2019-01-21T05:16:31.543Z,1.59
2019-01-21T05:19:20.421Z,1.59
2019-01-21T05:22:35.033Z,1.60
2019-01-21T05:25:43.304Z,1.63
2019-01-21T05:28:41.525Z,1.63
2019-01-21T05:31:47.077Z,1.58
2019-01-21T05:34:41.757Z,1.60
2019-01-21T05:37:41.643Z,1.60
2019-01-21T05:40:55.902Z,1.63
2019-01-21T05:44:03.066Z,1.60
2019-01-21T05:47:12.817Z,1.59
2019-01-21T05:50:33.838Z,1.56
2019-01-21T05:53:45.633Z,1.61
2019-01-21T05:57:04.081Z,1.65
2019-01-21T06:00:15.978Z,1.61
2019-01-21T06:03:29.835Z,1.63
2019-01-21T06:06:27.132Z,1.62
